createdAt,value
2023-01-29T00:02:05.929Z,100.00
2023-01-29T00:04:33.122Z,100.00
2023-01-29T00:07:02.452Z,100.00
2023-01-29T00:09:29.500Z,100.00
2023-01-29T00:11:57.052Z,100.00
2023-01-29T00:14:24.275Z,100.00
2023-01-29T00:16:51.322Z,100.00
2023-01-29T00:19:18.366Z,100.00
2023-01-29T00:21:47.558Z,100.00
2023-01-29T00:24:14.614Z,100.00
2023-01-29T00:26:42.754Z,100.00
2023-01-29T00:29:09.822Z,100.00
2023-01-29T00:31:36.980Z,100.00
2023-01-29T00:34:04.180Z,100.00
2023-01-29T00:36:31.083Z,100.00
2023-01-29T00:38:59.985Z,100.00
2023-01-29T00:41:46.568Z,100.00
2023-01-29T00:44:32.122Z,99.78
2023-01-29T00:46:59.854Z,99.03
2023-01-29T00:49:27.014Z,99.26
2023-01-29T00:52:12.878Z,98.85
2023-01-29T00:54:39.838Z,98.72
2023-01-29T00:57:06.843Z,98.92
2023-01-29T00:59:33.845Z,98.22
2023-01-29T01:02:19.438Z,98.46
2023-01-29T01:04:46.623Z,97.17
2023-01-29T01:09:58.196Z,97.69
2023-01-29T01:12:25.182Z,97.06
2023-01-29T01:14:52.156Z,98.15
2023-01-29T01:17:19.132Z,98.70
2023-01-29T01:19:46.266Z,97.64
2023-01-29T01:22:13.366Z,97.43
2023-01-29T01:24:40.345Z,97.18
2023-01-29T01:27:07.693Z,97.67
2023-01-29T01:29:34.707Z,97.15
2023-01-29T01:32:01.731Z,97.26
2023-01-29T01:34:28.903Z,97.34
2023-01-29T01:36:59.124Z,97.75
2023-01-29T01:39:26.137Z,97.49
2023-01-29T01:41:53.884Z,97.09
2023-01-29T01:44:39.669Z,96.69
2023-01-29T01:47:06.687Z,96.19
2023-01-29T01:49:33.778Z,97.05
2023-01-29T01:52:01.278Z,98.90
2023-01-29T01:54:30.594Z,98.45
2023-01-29T01:57:16.278Z,99.27
2023-01-29T01:59:46.865Z,99.40
2023-01-29T02:02:33.204Z,98.31
2023-01-29T02:05:18.725Z,98.75
2023-01-29T02:08:06.235Z,99.00
2023-01-29T02:10:38.290Z,98.45
2023-01-29T02:13:06.948Z,99.30
2023-01-29T02:15:34.296Z,99.45
2023-01-29T02:18:02.625Z,98.17
2023-01-29T02:20:32.310Z,98.01
2023-01-29T02:23:17.266Z,97.61
2023-01-29T02:26:09.876Z,95.28
2023-01-29T02:28:36.885Z,94.80
2023-01-29T02:31:05.613Z,93.86
2023-01-29T02:33:32.666Z,93.74
2023-01-29T02:36:05.005Z,92.42
2023-01-29T02:38:35.430Z,93.41
2023-01-29T02:41:06.312Z,92.46
2023-01-29T02:43:38.812Z,92.83
2023-01-29T02:46:06.004Z,92.09
2023-01-29T02:48:41.605Z,91.64
2023-01-29T02:51:18.616Z,91.23
2023-01-29T02:53:45.675Z,91.19
2023-01-29T02:56:17.996Z,91.03
2023-01-29T02:58:49.315Z,90.40
2023-01-29T03:01:20.238Z,89.83
2023-01-29T03:03:53.352Z,91.08
2023-01-29T03:06:22.497Z,90.74
2023-01-29T03:09:00.854Z,90.93
2023-01-29T03:11:30.374Z,90.87
2023-01-29T03:14:00.162Z,90.38
2023-01-29T03:16:39.659Z,90.87
2023-01-29T03:19:11.256Z,90.25
2023-01-29T03:21:59.834Z,89.68
2023-01-29T03:25:11.162Z,88.48
2023-01-29T03:28:11.966Z,88.42
2023-01-29T03:31:10.127Z,88.87
2023-01-29T03:33:45.505Z,87.33
2023-01-29T03:36:19.279Z,87.90
2023-01-29T03:38:46.538Z,87.35
2023-01-29T03:41:23.396Z,88.30
2023-01-29T03:44:03.772Z,87.42
2023-01-29T03:46:41.514Z,88.44
2023-01-29T03:49:30.612Z,89.00
2023-01-29T03:52:04.988Z,87.18
2023-01-29T03:54:31.963Z,87.52
2023-01-29T03:57:15.685Z,87.71
2023-01-29T03:59:55.597Z,87.61
2023-01-29T04:02:46.845Z,87.25
2023-01-29T04:05:19.269Z,85.95
2023-01-29T04:08:05.081Z,86.00
2023-01-29T04:10:36.077Z,86.11
2023-01-29T04:13:06.783Z,85.38
2023-01-29T04:15:37.342Z,85.23
2023-01-29T04:18:05.386Z,85.54
2023-01-29T04:20:56.014Z,86.41
2023-01-29T04:23:24.612Z,85.62
2023-01-29T04:26:12.520Z,84.56
2023-01-29T04:28:51.329Z,86.47
2023-01-29T04:31:23.361Z,86.34
2023-01-29T04:34:10.020Z,86.17
2023-01-29T04:36:42.130Z,86.03
2023-01-29T04:39:29.359Z,87.01
2023-01-29T04:42:05.316Z,85.91
2023-01-29T04:44:51.144Z,85.77
2023-01-29T04:47:30.623Z,85.81
2023-01-29T04:50:20.006Z,85.76
2023-01-29T04:52:59.576Z,85.44
2023-01-29T04:55:37.201Z,85.44
2023-01-29T04:58:07.339Z,86.05
2023-01-29T05:00:37.424Z,86.33
2023-01-29T05:03:06.463Z,86.94
2023-01-29T05:05:33.603Z,85.58
2023-01-29T05:08:00.503Z,86.03
2023-01-29T05:10:28.167Z,84.99
2023-01-29T05:13:00.568Z,85.73
2023-01-29T05:15:32.255Z,86.12
2023-01-29T05:18:03.200Z,85.24
2023-01-29T05:20:34.575Z,85.13
2023-01-29T05:23:01.469Z,85.71
2023-01-29T05:25:30.382Z,85.70
2023-01-29T05:28:07.299Z,86.47
2023-01-29T05:30:35.865Z,86.12
2023-01-29T05:33:03.913Z,87.73
2023-01-29T05:35:31.609Z,88.13
2023-01-29T05:37:58.946Z,87.98
2023-01-29T05:40:25.834Z,88.08
2023-01-29T05:42:52.945Z,87.70
2023-01-29T05:45:20.104Z,88.68
2023-01-29T05:47:47.629Z,88.26
2023-01-29T05:50:15.687Z,87.70
2023-01-29T05:52:53.764Z,87.83
2023-01-29T05:55:21.029Z,87.43
2023-01-29T05:57:48.131Z,87.21
2023-01-29T06:00:15.830Z,87.11
2023-01-29T06:02:47.088Z,86.45
2023-01-29T06:05:14.181Z,86.63
2023-01-29T06:07:45.650Z,87.94
2023-01-29T06:10:15.124Z,87.47
2023-01-29T06:12:47.256Z,87.48
2023-01-29T06:15:20.634Z,86.66
2023-01-29T06:17:48.653Z,86.70
2023-01-29T06:22:56.443Z,86.95
2023-01-29T06:25:23.452Z,87.20
2023-01-29T06:27:51.374Z,87.39
2023-01-29T06:30:19.434Z,87.48
2023-01-29T06:32:46.646Z,88.59
2023-01-29T06:35:13.720Z,88.01
2023-01-29T06:37:41.016Z,88.48
2023-01-29T06:40:09.963Z,88.59
2023-01-29T06:45:19.724Z,87.73
2023-01-29T06:47:46.868Z,87.52
2023-01-29T06:50:14.504Z,87.10
2023-01-29T06:52:41.943Z,88.18
2023-01-29T06:55:09.321Z,87.85
2023-01-29T06:57:36.341Z,87.54
2023-01-29T07:00:03.900Z,87.76
2023-01-29T07:02:31.090Z,87.87
2023-01-29T07:04:58.420Z,87.64
2023-01-29T07:07:25.374Z,86.90
2023-01-29T07:09:52.558Z,87.15
2023-01-29T07:12:19.834Z,86.63
2023-01-29T07:14:47.441Z,87.19
2023-01-29T07:17:14.760Z,87.14
2023-01-29T07:19:41.935Z,86.86
2023-01-29T07:22:08.974Z,86.92
2023-01-29T07:24:36.115Z,86.63
2023-01-29T07:27:03.408Z,86.06
2023-01-29T07:29:30.913Z,86.64
2023-01-29T07:32:17.744Z,86.94
2023-01-29T07:34:45.013Z,86.62
2023-01-29T07:37:12.054Z,86.88
2023-01-29T07:39:38.976Z,86.21
2023-01-29T07:42:06.135Z,86.18
2023-01-29T07:44:33.178Z,86.04
2023-01-29T07:47:00.451Z,85.84
2023-01-29T07:49:27.507Z,86.31
2023-01-29T07:51:54.693Z,86.11
2023-01-29T07:54:22.016Z,86.54
2023-01-29T07:56:49.158Z,85.39
2023-01-29T07:59:19.273Z,86.59
2023-01-29T08:01:46.320Z,86.37
2023-01-29T08:04:13.627Z,86.82
2023-01-29T08:06:40.615Z,86.51
2023-01-29T08:09:08.803Z,85.59
2023-01-29T08:11:35.849Z,85.94
2023-01-29T08:14:03.195Z,86.06
2023-01-29T08:16:30.277Z,84.67
2023-01-29T08:18:57.799Z,84.60
2023-01-29T08:21:24.804Z,84.89
2023-01-29T08:23:52.073Z,83.99
2023-01-29T08:26:19.312Z,84.17
2023-01-29T08:28:46.566Z,83.25
2023-01-29T08:31:15.469Z,83.26
2023-01-29T08:33:48.337Z,82.84
2023-01-29T08:38:58.095Z,83.08
2023-01-29T08:41:27.571Z,82.54
2023-01-29T08:44:05.510Z,83.07
2023-01-29T08:46:34.246Z,82.84
2023-01-29T08:49:04.687Z,82.15
2023-01-29T08:51:32.344Z,82.18
2023-01-29T08:53:59.747Z,83.02
2023-01-29T08:56:27.078Z,82.44
2023-01-29T08:58:54.658Z,82.66
2023-01-29T09:01:22.253Z,82.10
2023-01-29T09:03:50.391Z,83.20
2023-01-29T09:06:19.209Z,82.07
2023-01-29T09:08:46.278Z,83.04
2023-01-29T09:11:13.815Z,82.78
2023-01-29T09:13:40.840Z,82.33
2023-01-29T09:16:10.053Z,82.38
2023-01-29T09:18:37.222Z,82.47
2023-01-29T09:21:05.132Z,82.21
2023-01-29T09:23:32.332Z,81.42
2023-01-29T09:25:59.451Z,81.92
2023-01-29T09:28:26.443Z,81.83
2023-01-29T09:30:53.673Z,81.39
2023-01-29T09:33:26.456Z,81.34
2023-01-29T09:35:54.736Z,80.98
2023-01-29T09:38:22.119Z,80.67
2023-01-29T09:41:18.644Z,80.48
2023-01-29T09:44:03.496Z,80.40
2023-01-29T09:46:38.804Z,81.35
2023-01-29T09:49:09.612Z,80.51
2023-01-29T09:51:46.374Z,80.28
2023-01-29T09:54:19.381Z,79.84
2023-01-29T09:56:46.770Z,80.80
2023-01-29T09:59:14.565Z,79.68
2023-01-29T10:01:50.116Z,79.57
2023-01-29T10:10:08.550Z,80.09
2023-01-29T10:12:44.852Z,80.88
2023-01-29T10:15:18.417Z,80.48
2023-01-29T10:17:58.136Z,80.52
2023-01-29T10:23:13.523Z,80.88
2023-01-29T10:25:41.651Z,81.14
2023-01-29T10:28:19.090Z,81.44
2023-01-29T10:30:50.631Z,80.99
2023-01-29T10:33:19.262Z,80.59
2023-01-29T10:35:54.712Z,80.69
2023-01-29T10:38:39.810Z,80.03
2023-01-29T10:41:26.123Z,80.41
2023-01-29T10:44:02.770Z,80.18
2023-01-29T10:46:45.803Z,79.92
2023-01-29T10:49:25.516Z,79.25
2023-01-29T10:52:15.918Z,79.03
2023-01-29T10:54:45.917Z,79.58
2023-01-29T10:57:16.287Z,80.00
2023-01-29T10:59:53.183Z,80.21
2023-01-29T11:02:22.383Z,79.50
2023-01-29T11:04:49.573Z,79.78
2023-01-29T11:07:18.295Z,79.41
2023-01-29T11:10:00.596Z,79.85
2023-01-29T11:12:31.114Z,79.85
2023-01-29T11:14:58.503Z,79.67
2023-01-29T11:17:26.482Z,80.38
2023-01-29T11:19:59.643Z,80.80
2023-01-29T11:22:28.401Z,81.33
2023-01-29T11:25:13.168Z,81.30
2023-01-29T11:28:16.579Z,80.29
2023-01-29T11:30:46.344Z,80.48
2023-01-29T11:33:22.096Z,80.62
2023-01-29T11:37:31.300Z,80.57
2023-01-29T11:40:23.568Z,81.14
2023-01-29T11:46:22.974Z,81.94
2023-01-29T11:49:35.638Z,80.53
2023-01-29T11:52:04.725Z,81.64
2023-01-29T11:54:34.452Z,81.16
2023-01-29T11:57:05.277Z,80.33
2023-01-29T11:59:44.278Z,82.07
2023-01-29T12:02:19.146Z,81.44
2023-01-29T12:04:47.281Z,80.88
2023-01-29T12:07:16.376Z,81.73
2023-01-29T12:09:49.859Z,82.23
2023-01-29T12:12:26.156Z,81.42
2023-01-29T12:15:02.964Z,80.93
2023-01-29T12:17:31.643Z,81.24
2023-01-29T12:20:01.988Z,81.53
2023-01-29T12:22:53.571Z,81.33
2023-01-29T12:25:26.279Z,81.79
2023-01-29T12:27:56.183Z,82.00
2023-01-29T12:30:29.728Z,81.60
2023-01-29T12:33:18.026Z,81.23
2023-01-29T12:36:22.541Z,81.53
2023-01-29T12:38:49.797Z,81.71
2023-01-29T12:41:46.057Z,81.36
2023-01-29T12:44:19.754Z,82.78
2023-01-29T12:46:51.681Z,82.20
2023-01-29T12:49:24.877Z,82.42
2023-01-29T12:51:57.155Z,82.73
2023-01-29T12:54:32.142Z,82.83
2023-01-29T12:57:03.581Z,82.92
2023-01-29T12:59:33.668Z,83.27
2023-01-29T13:02:10.030Z,83.20
2023-01-29T13:04:56.502Z,83.57
2023-01-29T13:07:31.403Z,84.99
2023-01-29T13:10:04.526Z,84.46
2023-01-29T13:12:32.291Z,84.45
2023-01-29T13:15:03.268Z,85.56
2023-01-29T13:17:37.188Z,85.32
2023-01-29T13:20:24.407Z,84.66
2023-01-29T13:22:53.735Z,85.30
2023-01-29T13:25:21.323Z,85.63
2023-01-29T13:27:49.001Z,84.66
2023-01-29T13:30:29.843Z,85.10
2023-01-29T13:33:09.806Z,84.53
2023-01-29T13:35:39.822Z,84.60
2023-01-29T13:38:19.164Z,84.55
2023-01-29T13:40:49.512Z,85.07
2023-01-29T13:43:24.282Z,84.70
2023-01-29T13:45:53.162Z,85.16
2023-01-29T13:48:37.071Z,85.85
2023-01-29T13:51:10.439Z,86.21
2023-01-29T13:53:43.099Z,86.03
2023-01-29T13:56:30.174Z,85.15
2023-01-29T13:58:58.639Z,85.46
2023-01-29T14:01:45.733Z,85.82
2023-01-29T14:04:18.910Z,85.71
2023-01-29T14:06:48.158Z,85.55
2023-01-29T14:09:44.702Z,85.49
2023-01-29T14:12:24.022Z,86.23
2023-01-29T14:14:59.551Z,85.96
2023-01-29T14:17:27.371Z,85.77
2023-01-29T14:20:02.125Z,85.85
2023-01-29T14:22:32.624Z,86.52
2023-01-29T14:25:03.943Z,86.06
2023-01-29T14:27:45.531Z,86.35
2023-01-29T14:30:15.328Z,86.15
2023-01-29T14:35:32.536Z,86.85
2023-01-29T14:38:05.875Z,87.97
2023-01-29T14:40:33.151Z,87.65
2023-01-29T14:43:10.420Z,87.54
2023-01-29T14:45:38.943Z,87.71
2023-01-29T14:48:12.183Z,87.47
2023-01-29T14:50:41.226Z,87.53
2023-01-29T14:53:15.078Z,87.36
2023-01-29T14:55:42.305Z,87.74
2023-01-29T14:58:28.359Z,88.05
2023-01-29T15:00:57.261Z,88.10
2023-01-29T15:03:31.977Z,88.18
2023-01-29T15:06:01.455Z,88.15
2023-01-29T15:08:39.234Z,87.99
2023-01-29T15:11:36.748Z,88.58
2023-01-29T15:14:19.149Z,88.26
2023-01-29T15:17:17.462Z,88.39
2023-01-29T15:19:46.001Z,88.39
2023-01-29T15:22:15.119Z,88.80
2023-01-29T15:24:44.259Z,88.48
2023-01-29T15:27:17.965Z,87.91
2023-01-29T15:29:48.699Z,89.46
2023-01-29T15:32:27.439Z,89.64
2023-01-29T15:34:55.551Z,89.36
2023-01-29T15:37:30.253Z,89.27
2023-01-29T15:40:01.376Z,89.91
2023-01-29T15:42:30.810Z,89.39
2023-01-29T15:44:58.172Z,89.89
2023-01-29T15:47:32.825Z,89.81
2023-01-29T15:50:06.654Z,90.32
2023-01-29T15:52:37.585Z,90.31
2023-01-29T15:55:08.901Z,89.97
2023-01-29T15:57:45.462Z,90.02
2023-01-29T16:00:26.744Z,90.80
2023-01-29T16:02:56.400Z,91.13
2023-01-29T16:05:34.721Z,90.73
2023-01-29T16:08:04.502Z,90.75
2023-01-29T16:10:36.959Z,90.64
2023-01-29T16:13:10.858Z,90.51
2023-01-29T16:16:03.997Z,90.96
2023-01-29T16:18:59.619Z,90.68
2023-01-29T16:21:42.436Z,90.89
2023-01-29T16:24:23.677Z,90.20
2023-01-29T16:27:01.228Z,90.47
2023-01-29T16:29:44.733Z,90.54
2023-01-29T16:32:14.368Z,90.74
2023-01-29T16:34:43.381Z,90.55
2023-01-29T16:37:21.671Z,90.75
2023-01-29T16:39:53.233Z,90.81
2023-01-29T16:42:25.417Z,91.33
2023-01-29T16:44:58.207Z,91.16
2023-01-29T16:47:29.841Z,91.32
2023-01-29T16:50:04.331Z,91.39
2023-01-29T16:52:35.474Z,91.92
2023-01-29T16:55:13.055Z,91.87
2023-01-29T16:57:45.003Z,91.67
2023-01-29T17:00:20.196Z,91.48
2023-01-29T17:02:47.684Z,91.62
2023-01-29T17:05:21.408Z,91.93
2023-01-29T17:07:48.787Z,91.55
2023-01-29T17:10:20.595Z,91.93
2023-01-29T17:12:54.915Z,91.89
2023-01-29T17:15:31.224Z,92.04
2023-01-29T17:17:58.233Z,91.95
2023-01-29T17:20:26.910Z,91.66
2023-01-29T17:22:54.174Z,91.96
2023-01-29T17:25:24.287Z,92.27
2023-01-29T17:27:54.352Z,92.29
2023-01-29T17:30:23.923Z,92.35
2023-01-29T17:32:51.012Z,91.92
2023-01-29T17:35:18.470Z,92.27
2023-01-29T17:37:45.798Z,92.55
2023-01-29T17:40:17.337Z,92.24
2023-01-29T17:42:44.472Z,92.51
2023-01-29T17:45:11.413Z,92.47
2023-01-29T17:47:38.539Z,92.55
2023-01-29T17:50:40.091Z,92.96
2023-01-29T17:53:07.118Z,92.54
2023-01-29T17:55:34.115Z,92.67
2023-01-29T17:58:01.190Z,92.85
2023-01-29T18:00:28.297Z,92.32
2023-01-29T18:02:55.299Z,92.06
2023-01-29T18:05:22.364Z,92.04
2023-01-29T18:07:52.942Z,92.04
2023-01-29T18:10:20.642Z,92.12
2023-01-29T18:12:48.066Z,91.74
2023-01-29T18:15:15.631Z,91.61
2023-01-29T18:17:43.527Z,91.80
2023-01-29T18:20:16.332Z,91.55
2023-01-29T18:22:43.471Z,91.39
2023-01-29T18:25:10.431Z,91.26
2023-01-29T18:27:37.388Z,91.52
2023-01-29T18:30:05.074Z,91.09
2023-01-29T18:32:32.121Z,91.23
2023-01-29T18:34:59.342Z,90.90
2023-01-29T18:37:26.419Z,90.81
2023-01-29T18:39:53.997Z,91.43
2023-01-29T18:42:21.023Z,90.60
2023-01-29T18:44:48.155Z,90.67
2023-01-29T18:47:15.218Z,90.90
2023-01-29T18:49:42.516Z,90.69
2023-01-29T18:52:09.646Z,90.75
2023-01-29T18:54:36.747Z,91.51
2023-01-29T18:57:13.053Z,91.30
2023-01-29T18:59:41.611Z,91.63
2023-01-29T19:02:11.978Z,90.90
2023-01-29T19:04:39.000Z,91.32
2023-01-29T19:07:06.305Z,90.77
2023-01-29T19:09:33.267Z,91.18
2023-01-29T19:12:00.416Z,90.89
2023-01-29T19:14:27.359Z,91.10
2023-01-29T19:16:54.443Z,91.16
2023-01-29T19:19:21.584Z,91.33
2023-01-29T19:21:48.886Z,91.86
2023-01-29T19:24:16.107Z,92.12
2023-01-29T19:26:43.103Z,91.62
2023-01-29T19:29:10.168Z,91.34
2023-01-29T19:31:37.232Z,91.12
2023-01-29T19:34:04.349Z,91.53
2023-01-29T19:36:31.728Z,91.08
2023-01-29T19:38:58.804Z,90.92
2023-01-29T19:41:25.786Z,90.80
2023-01-29T19:43:54.097Z,91.29
2023-01-29T19:46:21.107Z,91.12
2023-01-29T19:48:51.426Z,91.36
2023-01-29T19:51:18.860Z,91.50
2023-01-29T19:53:45.867Z,91.20
2023-01-29T19:56:20.187Z,91.14
2023-01-29T19:58:47.500Z,91.09
2023-01-29T20:01:16.405Z,91.04
2023-01-29T20:03:46.909Z,91.06
2023-01-29T20:06:15.641Z,90.58
2023-01-29T20:08:45.642Z,91.02
2023-01-29T20:11:17.231Z,91.45
2023-01-29T20:13:46.683Z,91.33
2023-01-29T20:16:13.778Z,91.47
2023-01-29T20:18:41.297Z,91.03
2023-01-29T20:21:10.384Z,91.51
2023-01-29T20:23:40.177Z,91.27
2023-01-29T20:26:08.498Z,90.72
2023-01-29T20:28:36.857Z,90.50
2023-01-29T20:31:04.297Z,90.68
2023-01-29T20:33:32.043Z,90.73
2023-01-29T20:36:00.215Z,91.21
2023-01-29T20:38:31.981Z,91.00
2023-01-29T20:41:10.005Z,90.89
2023-01-29T20:43:37.032Z,90.58
2023-01-29T20:46:04.382Z,90.58
2023-01-29T20:48:32.056Z,90.81
2023-01-29T20:51:10.058Z,91.25
2023-01-29T20:53:37.303Z,91.11
2023-01-29T20:56:04.833Z,91.38
2023-01-29T20:58:32.555Z,91.09
2023-01-29T21:00:59.963Z,91.27
2023-01-29T21:03:29.119Z,91.24
2023-01-29T21:05:59.317Z,90.69
2023-01-29T21:08:26.239Z,90.83
2023-01-29T21:10:53.801Z,91.36
2023-01-29T21:13:20.896Z,91.21
2023-01-29T21:15:49.397Z,91.75
2023-01-29T21:18:16.528Z,90.94
2023-01-29T21:20:43.493Z,90.81
2023-01-29T21:23:10.964Z,91.39
2023-01-29T21:25:39.003Z,91.11
2023-01-29T21:28:06.381Z,91.09
2023-01-29T21:30:34.044Z,90.95
2023-01-29T21:33:01.153Z,90.61
2023-01-29T21:35:28.521Z,90.51
2023-01-29T21:37:55.565Z,90.80
2023-01-29T21:40:25.319Z,90.60
2023-01-29T21:43:10.774Z,90.61
2023-01-29T21:45:38.578Z,91.69
2023-01-29T21:48:05.949Z,91.71
2023-01-29T21:50:33.020Z,92.00
2023-01-29T21:53:00.089Z,91.89
2023-01-29T21:55:27.059Z,92.13
2023-01-29T21:57:54.080Z,92.58
2023-01-29T22:00:21.098Z,92.83
2023-01-29T22:02:50.218Z,93.20
2023-01-29T22:05:19.832Z,94.14
2023-01-29T22:07:55.287Z,94.21
2023-01-29T22:10:24.841Z,93.85
2023-01-29T22:12:53.080Z,93.36
2023-01-29T22:15:23.617Z,93.48
2023-01-29T22:17:51.223Z,93.67
2023-01-29T22:20:19.204Z,93.94
2023-01-29T22:22:46.398Z,94.66
2023-01-29T22:25:13.368Z,94.85
2023-01-29T22:27:40.477Z,95.59
2023-01-29T22:30:07.851Z,95.04
2023-01-29T22:32:35.156Z,94.57
2023-01-29T22:35:02.147Z,94.72
2023-01-29T22:37:30.565Z,95.05
2023-01-29T22:39:57.562Z,94.70
2023-01-29T22:42:25.202Z,94.50
2023-01-29T22:44:52.173Z,94.80
2023-01-29T22:47:20.483Z,94.60
2023-01-29T22:49:49.427Z,94.46
2023-01-29T22:52:16.374Z,94.47
2023-01-29T22:54:44.893Z,94.35
2023-01-29T22:57:12.879Z,94.40
2023-01-29T22:59:39.898Z,94.11
2023-01-29T23:02:07.808Z,93.60
2023-01-29T23:04:34.872Z,93.52
2023-01-29T23:07:01.935Z,93.70
2023-01-29T23:09:29.102Z,93.78
2023-01-29T23:11:56.204Z,93.74
2023-01-29T23:14:23.123Z,94.25
2023-01-29T23:16:50.069Z,94.65
2023-01-29T23:19:17.819Z,95.11
2023-01-29T23:21:44.805Z,94.80
2023-01-29T23:24:12.027Z,95.70
2023-01-29T23:26:57.700Z,95.81
2023-01-29T23:29:24.631Z,96.38
2023-01-29T23:31:51.617Z,97.03
2023-01-29T23:34:20.998Z,97.19
2023-01-29T23:36:48.084Z,97.10
2023-01-29T23:39:14.988Z,96.53
2023-01-29T23:41:41.911Z,96.48
2023-01-29T23:44:08.963Z,96.98
2023-01-29T23:46:35.923Z,96.50
2023-01-29T23:49:02.915Z,96.18
2023-01-29T23:51:29.976Z,96.60
2023-01-29T23:53:56.952Z,97.14
2023-01-29T23:56:24.101Z,96.69
2023-01-29T23:58:55.096Z,96.65
